Crown Point, IN (46307)

5:54 PM CDT on August 29, 2014 (GMT -0500)
Stillwater | Change Station
CLOSE
Current Station
Personal Weather Station
Location: Crown Point, IN
Elevation: 781 ft
Nearby Weather Stations

Elev 781 ft 41.39 °N, 87.34 °W | Updated 0 second ago

Thunderstorm
Thunderstorm
76.2 °F
Feels Like 77 °F
N
0.0
Wind Variable Wind from SSE
Gusts 4.0 mph

Today
High -- | Low -- °F
--% Chance of Precip.
Yesterday
High -- | Low -- °F
Precip. -- in
6:12 AM 7:27 PM
Waxing Crescent, 17% visible
Pressure 29.93 in
Visibility 7.0 miles
Clouds Overcast 2100 ft
Heat Index 77 °F
Dew Point 70 °F
Humidity 81%
Rainfall 0.02 in
Snow Depth Not available.
UV 2 out of 12
Pollen 4.40 out of 12
Ozone Good
PM2.5 Moderate
Flu Activity Not available.
METAR KGYY 292045Z 21007KT 7SM OVC021 28/22 A2993 RMK LGT DSNT ALQS

More Conditions Fewer Conditions

Pressure 29.93 in
Visibility 7.0 miles
Clouds Overcast 2100 ft
Heat Index 77 °F
Dew Point 70 °F
Humidity 81%
Rainfall 0.02 in
Snow Depth Not available.
UV 2 out of 12
Pollen 4.40 out of 12
Ozone Good
PM2.5 Moderate
Flu Activity Not available.
METAR KGYY 292045Z 21007KT 7SM OVC021 28/22 A2993 RMK LGT DSNT ALQS

More Conditions Fewer Conditions

Nowcast | as of 4:25 PM CDT on August 29, 2014

Through 615 PM...scattered thunderstorms will lift north into Newton...Jasper...Lake...and Porter counties of NW Indiana. Some of the thunderstorms will likely produce torrential downpours...cloud to ground lightning...and locally strong wind gusts of 25 to 35 mph. Thunderstorms will likely affect areas in or near Roselawn...Crown Point...and north along the Interstate 65 corridor to Merrillville and Hobart. Localized street flooding and ponding of water are possible.

×

10-Day Weather Forecast

Almanac

Astronomy

Aug. 29, 2014 Rise Set
Actual Time 6:12 AM CDT 7:27 PM CDT
Civil Twilight 5:43 AM CDT 7:55 PM CDT
Nautical Twilight 5:09 AM CDT 8:29 PM CDT
Astronomical Twilight 4:33 AM CDT 9:05 PM CDT
Moon 10:04 AM CDT 9:21 PM CDT
Length of Visible Light 14h 11m
Length of Day
13h 14m
Tomorrow will be 2m 38s shorter.
Waxing Crescent, 17% of the Moon is Illuminated
Today
Waxing Crescent
Sep 2
First Quarter
Sep 8
Full
Sep 15
Last Quarter
Sep 24
New

Today's Extremes

State Highs State Lows

Community

WunderPhotos

Upload Photos

1,748,363 photos uploaded!

Nearby

Air Quality

  Air Quality AQ Index Pollutant
Yesterday Good
PM10
Yesterday Good
OZONE
Current Moderate
PM2.5
Current Good
OZONE
Friday Good
OZONE
Friday Good
PM2.5
Saturday Moderate
OZONE
Saturday Moderate
PM2.5
Sunday Moderate
OZONE
Sunday Moderate
PM2.5
Monday Moderate
PM2.5
Monday Good
OZONE
Tuesday Moderate
PM2.5
Tuesday Good
OZONE

Snow Depth

Station Depth Elevation
No new snow has been reported.

Earthquake Activity

City Distance Mag. Time & Date
No recent earthquake activity has been reported nearby.
Minimum magnitude displayed is 2.5.

Coastal Water Temperatures

Place Temperature
No Stations Reporting

Nearby Weather Stations